createdAt,value
2022-08-12T00:00:34.878Z,2.67
2022-08-12T00:03:20.840Z,2.60
2022-08-12T00:06:07.423Z,3.13
2022-08-12T00:08:55.567Z,2.97
2022-08-12T00:11:41.176Z,3.10
2022-08-12T00:14:26.038Z,3.00
2022-08-12T00:17:11.158Z,2.87
2022-08-12T00:19:56.110Z,2.60
2022-08-12T00:22:41.672Z,3.07
2022-08-12T00:25:51.202Z,2.93
2022-08-12T00:28:32.974Z,2.90
2022-08-12T00:31:18.051Z,2.90
2022-08-12T00:34:02.999Z,3.03
2022-08-12T00:36:50.584Z,3.00
2022-08-12T00:39:36.214Z,2.97
2022-08-12T00:42:11.805Z,2.80
2022-08-12T00:44:39.243Z,2.73
2022-08-12T00:47:05.939Z,3.20
2022-08-12T00:49:32.614Z,3.10
2022-08-12T00:52:06.578Z,3.60
2022-08-12T00:54:40.326Z,2.77
2022-08-12T00:57:08.559Z,2.57
2022-08-12T00:59:35.983Z,3.03
2022-08-12T01:02:11.067Z,3.17
2022-08-12T01:04:57.713Z,3.27
2022-08-12T01:07:42.867Z,2.83
2022-08-12T01:10:32.777Z,2.90
2022-08-12T01:13:07.542Z,3.00
2022-08-12T01:15:47.139Z,3.10
2022-08-12T01:18:14.245Z,3.07
2022-08-12T01:20:47.776Z,3.07
2022-08-12T01:23:14.140Z,2.60
2022-08-12T01:25:55.989Z,3.27
2022-08-12T01:28:24.231Z,2.80
2022-08-12T01:30:50.772Z,3.20
2022-08-12T01:33:17.796Z,3.03
2022-08-12T01:35:45.399Z,3.40
2022-08-12T01:38:29.730Z,3.30
2022-08-12T01:40:58.784Z,2.93
2022-08-12T01:43:25.744Z,2.97
2022-08-12T01:46:01.047Z,3.60
2022-08-12T01:48:50.047Z,3.10
2022-08-12T01:52:15.938Z,3.40
2022-08-12T01:54:15.914Z,2.83
2022-08-12T01:56:46.450Z,3.27
2022-08-12T01:59:34.229Z,2.80
2022-08-12T02:02:02.586Z,3.27
2022-08-12T02:04:52.723Z,2.93
2022-08-12T02:07:42.252Z,3.10
2022-08-12T02:10:50.924Z,2.97
2022-08-12T02:13:41.985Z,2.80
2022-08-12T02:16:23.142Z,3.10
2022-08-12T02:19:16.133Z,3.00
2022-08-12T02:22:07.801Z,3.20
2022-08-12T02:24:37.403Z,3.10
2022-08-12T02:27:05.058Z,2.80
2022-08-12T02:29:31.656Z,3.03
2022-08-12T02:31:59.276Z,3.37
2022-08-12T02:34:26.196Z,3.20
2022-08-12T02:36:55.897Z,2.87
2022-08-12T02:39:24.757Z,2.93
2022-08-12T02:41:52.388Z,2.97
2022-08-12T02:44:19.462Z,3.13
2022-08-12T02:46:50.176Z,2.90
2022-08-12T02:49:16.538Z,2.80
2022-08-12T02:51:46.360Z,3.27
2022-08-12T02:54:13.049Z,3.37
2022-08-12T02:56:40.907Z,3.20
2022-08-12T02:59:10.600Z,2.80
2022-08-12T03:01:47.672Z,2.97
2022-08-12T03:04:20.697Z,3.20
2022-08-12T03:07:07.672Z,3.40
2022-08-12T03:09:52.391Z,3.23
2022-08-12T03:12:22.973Z,2.83
2022-08-12T03:14:51.178Z,3.20
2022-08-12T03:17:29.801Z,3.53
2022-08-12T03:20:10.296Z,2.90
2022-08-12T03:22:40.474Z,3.37
2022-08-12T03:25:11.953Z,3.23
2022-08-12T03:27:49.879Z,3.20
2022-08-12T03:30:19.987Z,2.90
2022-08-12T03:32:48.301Z,3.70
2022-08-12T03:35:40.218Z,3.50
2022-08-12T03:38:11.701Z,2.93
2022-08-12T03:41:20.145Z,3.40
2022-08-12T03:44:22.885Z,3.10
2022-08-12T03:47:33.848Z,2.80
2022-08-12T03:50:19.026Z,3.47
2022-08-12T03:53:03.943Z,3.33
2022-08-12T03:55:48.881Z,3.57
2022-08-12T03:58:34.734Z,3.53
2022-08-12T04:01:01.369Z,3.77
2022-08-12T04:03:46.942Z,3.40
2022-08-12T04:06:13.291Z,3.10
2022-08-12T04:08:39.688Z,3.60
2022-08-12T04:11:28.065Z,3.13
2022-08-12T04:14:27.947Z,3.33
2022-08-12T04:16:54.360Z,3.70
2022-08-12T04:19:20.733Z,3.67
2022-08-12T04:22:01.625Z,4.00
2022-08-12T04:24:31.382Z,3.70
2022-08-12T04:26:57.752Z,3.20
2022-08-12T04:30:29.076Z,3.23
2022-08-12T04:32:10.724Z,3.47
2022-08-12T04:34:38.657Z,3.27
2022-08-12T04:37:05.049Z,3.00
2022-08-12T04:39:31.639Z,3.50
2022-08-12T04:42:00.350Z,2.90
2022-08-12T04:44:28.034Z,3.63
2022-08-12T04:46:54.730Z,3.67
2022-08-12T04:49:24.151Z,3.23
2022-08-12T04:51:53.500Z,3.50
2022-08-12T04:54:26.092Z,3.37
2022-08-12T04:57:03.971Z,3.67
2022-08-12T04:59:43.663Z,3.20
2022-08-12T05:02:17.072Z,3.40
2022-08-12T05:04:49.998Z,3.60
2022-08-12T05:07:16.367Z,4.23
2022-08-12T05:10:00.610Z,4.10
2022-08-12T05:12:33.993Z,4.20
2022-08-12T05:15:00.670Z,4.30
2022-08-12T05:17:28.123Z,4.40
2022-08-12T05:19:54.957Z,4.20
2022-08-12T05:22:23.933Z,3.67
2022-08-12T05:24:50.316Z,3.80
2022-08-12T05:27:17.607Z,3.80
2022-08-12T05:30:06.930Z,3.80
2022-08-12T05:32:35.988Z,4.30
2022-08-12T05:35:06.598Z,3.97
2022-08-12T05:37:34.773Z,3.83
2022-08-12T05:40:03.031Z,3.30
2022-08-12T05:42:34.560Z,3.90
2022-08-12T05:45:01.464Z,3.70
2022-08-12T05:47:36.558Z,3.87
2022-08-12T05:50:15.905Z,3.67
2022-08-12T05:52:42.387Z,3.50
2022-08-12T05:55:10.329Z,3.67
2022-08-12T05:57:38.021Z,3.90
2022-08-12T06:00:04.927Z,3.60
2022-08-12T06:02:38.055Z,3.83
2022-08-12T06:05:10.489Z,3.40
2022-08-12T06:08:01.386Z,3.40
2022-08-12T06:10:32.610Z,3.00
2022-08-12T06:13:02.638Z,3.17
2022-08-12T06:15:29.718Z,2.97
2022-08-12T06:18:05.340Z,2.90
2022-08-12T06:20:41.363Z,2.77
2022-08-12T06:23:08.073Z,3.40
2022-08-12T06:25:34.569Z,3.20
2022-08-12T06:28:06.920Z,3.37
2022-08-12T06:30:38.476Z,2.70
2022-08-12T06:33:25.176Z,3.10
2022-08-12T06:35:57.630Z,3.20
2022-08-12T06:38:28.038Z,3.03
2022-08-12T06:41:18.016Z,2.90
2022-08-12T06:44:06.470Z,2.43
2022-08-12T06:46:31.902Z,2.90
2022-08-12T06:48:59.321Z,2.60
2022-08-12T06:51:28.006Z,2.23
2022-08-12T06:53:55.873Z,2.33
2022-08-12T06:56:34.717Z,2.20
2022-08-12T06:59:09.252Z,2.07
2022-08-12T07:01:37.499Z,2.03
2022-08-12T07:04:26.430Z,2.17
2022-08-12T07:06:50.524Z,2.30
2022-08-12T07:10:07.088Z,1.90
2022-08-12T07:12:04.617Z,1.73
2022-08-12T07:14:31.549Z,1.83
2022-08-12T07:17:02.192Z,2.30
2022-08-12T07:19:45.240Z,2.00
2022-08-12T07:22:13.824Z,2.03
2022-08-12T07:24:40.211Z,1.80
2022-08-12T07:27:06.614Z,1.90
2022-08-12T07:30:03.727Z,1.70
2022-08-12T07:32:23.617Z,1.80
2022-08-12T07:34:50.273Z,2.20
2022-08-12T07:37:17.679Z,2.03
2022-08-12T07:39:50.898Z,1.80
2022-08-12T07:42:26.710Z,1.97
2022-08-12T07:44:53.386Z,2.00
2022-08-12T07:47:19.771Z,2.17
2022-08-12T07:50:04.220Z,1.93
2022-08-12T07:52:37.155Z,2.10
2022-08-12T07:55:04.305Z,2.40
2022-08-12T07:57:32.598Z,2.03
2022-08-12T08:00:03.661Z,2.07
2022-08-12T08:02:36.167Z,2.03
2022-08-12T08:05:03.907Z,1.80
2022-08-12T08:07:30.983Z,1.98
2022-08-12T08:09:59.457Z,2.38
2022-08-12T08:12:45.870Z,2.65
2022-08-12T08:15:14.806Z,2.40
2022-08-12T08:17:51.869Z,2.10
2022-08-12T08:20:28.291Z,1.85
2022-08-12T08:22:56.347Z,2.05
2022-08-12T08:25:36.828Z,1.42
2022-08-12T08:28:07.023Z,2.00
2022-08-12T08:30:34.233Z,2.23
2022-08-12T08:33:00.790Z,1.83
2022-08-12T08:35:29.915Z,1.83
2022-08-12T08:38:14.785Z,2.10
2022-08-12T08:42:19.266Z,1.83
2022-08-12T08:44:04.405Z,1.77
2022-08-12T08:46:32.952Z,1.83
2022-08-12T08:49:01.385Z,1.83
2022-08-12T08:51:27.856Z,1.70
2022-08-12T08:53:54.295Z,1.70
2022-08-12T08:56:21.724Z,1.70
2022-08-12T08:58:49.135Z,1.97
2022-08-12T09:01:22.466Z,1.77
2022-08-12T09:05:08.902Z,1.97
2022-08-12T09:06:38.147Z,1.70
2022-08-12T09:09:13.401Z,1.57
2022-08-12T09:12:10.711Z,1.80
2022-08-12T09:14:42.081Z,2.00
2022-08-12T09:17:13.854Z,1.57
2022-08-12T09:22:37.709Z,1.67
2022-08-12T09:25:07.159Z,1.80
2022-08-12T09:30:41.950Z,1.50
2022-08-12T09:33:18.893Z,1.70
2022-08-12T09:36:03.181Z,1.40
2022-08-12T09:38:32.278Z,1.70
2022-08-12T09:42:09.073Z,1.73
2022-08-12T09:44:05.170Z,1.60
2022-08-12T09:46:32.274Z,1.77
2022-08-12T09:49:01.162Z,1.50
2022-08-12T09:51:38.231Z,1.67
2022-08-12T09:54:35.234Z,1.50
2022-08-12T09:58:07.722Z,1.80
2022-08-12T10:00:13.281Z,1.80
2022-08-12T10:02:45.681Z,1.60
2022-08-12T10:05:17.702Z,1.70
2022-08-12T10:07:44.446Z,1.70
2022-08-12T10:10:23.851Z,1.40
2022-08-12T10:13:34.581Z,1.97
2022-08-12T10:16:02.055Z,1.83
2022-08-12T10:18:32.716Z,1.53
2022-08-12T10:21:04.956Z,2.10
2022-08-12T10:23:39.944Z,1.70
2022-08-12T10:26:37.830Z,1.77
2022-08-12T10:30:37.151Z,1.90
2022-08-12T10:32:45.500Z,1.57
2022-08-12T10:35:08.419Z,1.97
2022-08-12T10:38:38.651Z,1.60
2022-08-12T10:40:28.637Z,1.70
2022-08-12T10:43:17.179Z,2.03
2022-08-12T10:45:43.907Z,2.07
2022-08-12T10:48:21.219Z,1.70
2022-08-12T10:50:56.732Z,1.70
2022-08-12T10:53:45.558Z,1.80
2022-08-12T10:56:16.628Z,1.50
2022-08-12T10:58:45.955Z,1.70
2022-08-12T11:01:49.097Z,1.70
2022-08-12T11:04:19.784Z,1.57
2022-08-12T11:07:06.104Z,1.70
2022-08-12T11:09:55.652Z,1.33
2022-08-12T11:12:56.387Z,1.50
2022-08-12T11:15:18.620Z,2.03
2022-08-12T11:17:54.472Z,1.57
2022-08-12T11:20:23.915Z,1.33
2022-08-12T11:22:59.092Z,1.47
2022-08-12T11:25:42.224Z,1.53
2022-08-12T11:28:13.640Z,1.90
2022-08-12T11:30:40.231Z,1.50
2022-08-12T11:33:11.674Z,1.50
2022-08-12T11:35:41.473Z,1.70
2022-08-12T11:38:10.216Z,1.58
2022-08-12T11:40:36.801Z,1.80
2022-08-12T11:43:19.213Z,1.77
2022-08-12T11:45:47.112Z,2.20
2022-08-12T11:48:15.323Z,1.80
2022-08-12T11:50:45.028Z,1.80
2022-08-12T11:53:59.051Z,1.65
2022-08-12T11:55:57.836Z,1.20
2022-08-12T11:59:28.668Z,1.35
2022-08-12T12:02:01.924Z,1.45
2022-08-12T12:03:56.988Z,1.33
2022-08-12T12:06:24.862Z,4.03
2022-08-12T12:08:53.728Z,1.63
2022-08-12T12:11:21.227Z,1.80
2022-08-12T12:14:07.955Z,1.40
2022-08-12T12:16:38.017Z,1.50
2022-08-12T12:19:05.498Z,1.42
2022-08-12T12:21:47.213Z,1.23
2022-08-12T12:24:21.714Z,1.40
2022-08-12T12:27:00.818Z,1.15
2022-08-12T12:30:13.338Z,1.40
2022-08-12T12:32:18.562Z,1.00
2022-08-12T12:35:13.467Z,1.10
2022-08-12T12:38:05.549Z,1.17
2022-08-12T12:40:18.539Z,1.17
2022-08-12T12:42:55.997Z,9.50
2022-08-12T12:45:26.177Z,1.27
2022-08-12T12:47:57.681Z,1.10
2022-08-12T12:50:34.851Z,1.17
2022-08-12T12:53:02.891Z,1.20
2022-08-12T12:55:35.558Z,1.40
2022-08-12T12:58:04.581Z,1.02
2022-08-12T13:00:32.651Z,1.10
2022-08-12T13:02:59.756Z,1.10
2022-08-12T13:05:42.217Z,1.13
2022-08-12T13:08:28.612Z,3.05
2022-08-12T13:11:05.970Z,1.00
2022-08-12T13:14:06.950Z,1.20
2022-08-12T13:16:23.278Z,1.10
2022-08-12T13:18:51.150Z,1.08
2022-08-12T13:21:32.823Z,1.30
2022-08-12T13:24:02.950Z,1.10
2022-08-12T13:26:40.141Z,1.30
2022-08-12T13:29:11.191Z,1.20
2022-08-12T13:32:17.413Z,1.40
2022-08-12T13:34:32.626Z,1.30
2022-08-12T13:37:01.965Z,1.05
2022-08-12T13:39:30.125Z,1.08
2022-08-12T13:41:56.601Z,1.05
2022-08-12T13:44:26.240Z,1.10
2022-08-12T13:46:58.537Z,1.10
2022-08-12T13:49:55.394Z,1.20
2022-08-12T13:52:13.822Z,1.10
2022-08-12T13:54:40.405Z,1.20
2022-08-12T13:57:10.937Z,1.20
2022-08-12T13:59:48.336Z,1.17
2022-08-12T14:02:22.591Z,1.45
2022-08-12T14:04:56.256Z,1.60
2022-08-12T14:07:23.150Z,1.10
2022-08-12T14:10:11.301Z,1.35
2022-08-12T14:12:40.134Z,1.10
2022-08-12T14:15:20.815Z,1.17
2022-08-12T14:18:09.104Z,1.40
2022-08-12T14:20:39.974Z,1.38
2022-08-12T14:24:01.472Z,1.40
2022-08-12T14:25:53.503Z,1.00
2022-08-12T14:28:23.266Z,1.27
2022-08-12T14:31:00.000Z,1.20
2022-08-12T14:33:29.294Z,1.35
2022-08-12T14:36:14.610Z,1.10
2022-08-12T14:38:43.918Z,1.20
2022-08-12T14:41:19.034Z,1.45
2022-08-12T14:44:06.239Z,1.27
2022-08-12T14:46:34.565Z,1.40
2022-08-12T14:49:11.551Z,1.00
2022-08-12T14:52:42.712Z,1.00
2022-08-12T14:58:00.514Z,1.70
2022-08-12T15:00:28.264Z,1.35
2022-08-12T15:02:55.280Z,1.20
2022-08-12T15:06:06.581Z,1.50
2022-08-12T15:08:13.287Z,1.30
2022-08-12T15:10:49.922Z,1.30
2022-08-12T15:13:22.432Z,1.30
2022-08-12T15:15:49.830Z,1.17
2022-08-12T15:18:21.380Z,1.20
2022-08-12T15:20:48.935Z,1.00
2022-08-12T15:23:21.605Z,1.03
2022-08-12T15:25:49.089Z,1.20
2022-08-12T15:28:22.749Z,1.20
2022-08-12T15:30:53.624Z,1.17
2022-08-12T15:33:24.081Z,1.43
2022-08-12T15:35:54.058Z,1.20
2022-08-12T15:38:21.561Z,1.20
2022-08-12T15:40:49.580Z,1.20
2022-08-12T15:43:35.501Z,1.17
2022-08-12T15:46:04.634Z,1.17
2022-08-12T15:48:33.979Z,1.10
2022-08-12T15:51:01.205Z,1.20
2022-08-12T15:53:53.364Z,1.07
2022-08-12T15:56:29.168Z,1.30
2022-08-12T15:59:00.347Z,1.00
2022-08-12T16:01:35.337Z,1.83
2022-08-12T16:04:02.969Z,1.20
2022-08-12T16:07:04.381Z,1.13
2022-08-12T16:09:21.649Z,1.00
2022-08-12T16:11:59.179Z,1.20
2022-08-12T16:14:28.204Z,1.20
2022-08-12T16:16:55.375Z,1.10
2022-08-12T16:20:02.849Z,0.90
2022-08-12T16:22:11.462Z,1.10
2022-08-12T16:24:42.180Z,0.90
2022-08-12T16:27:09.236Z,1.33
2022-08-12T16:29:52.906Z,1.00
2022-08-12T16:32:23.110Z,0.93
2022-08-12T16:34:55.865Z,1.20
2022-08-12T16:37:32.558Z,0.90
2022-08-12T16:40:10.136Z,0.97
2022-08-12T16:42:39.410Z,1.07
2022-08-12T16:45:10.172Z,0.93
2022-08-12T16:47:57.453Z,0.90
2022-08-12T16:50:30.901Z,1.10
2022-08-12T16:52:59.711Z,0.93
2022-08-12T16:55:42.169Z,1.00
2022-08-12T16:58:25.537Z,1.00
2022-08-12T17:00:55.105Z,1.00
2022-08-12T17:03:28.685Z,0.90
2022-08-12T17:05:56.020Z,1.37
2022-08-12T17:08:29.046Z,1.10
2022-08-12T17:10:55.898Z,0.90
2022-08-12T17:13:24.031Z,1.00
2022-08-12T17:16:05.848Z,1.47
2022-08-12T17:18:42.876Z,1.30
2022-08-12T17:21:20.309Z,1.30
2022-08-12T17:24:10.494Z,1.20
2022-08-12T17:26:44.812Z,0.93
2022-08-12T17:29:16.667Z,1.10
2022-08-12T17:32:00.407Z,1.10
2022-08-12T17:34:47.868Z,1.10
2022-08-12T17:37:15.720Z,1.00
2022-08-12T17:40:15.100Z,0.90
2022-08-12T17:42:34.830Z,1.20
2022-08-12T17:45:15.489Z,0.80
2022-08-12T17:47:45.722Z,1.00
2022-08-12T17:50:28.716Z,0.80
2022-08-12T17:53:00.833Z,0.90
2022-08-12T17:55:43.619Z,1.00
2022-08-12T17:58:14.253Z,0.80
2022-08-12T18:00:42.564Z,0.83
2022-08-12T18:03:09.331Z,1.10
2022-08-12T18:05:55.572Z,1.00
2022-08-12T18:08:33.595Z,0.90
2022-08-12T18:11:21.262Z,0.77
2022-08-12T18:14:06.125Z,1.00
2022-08-12T18:16:34.989Z,1.00
2022-08-12T18:19:02.406Z,0.90
2022-08-12T18:22:00.954Z,1.00
2022-08-12T18:24:21.972Z,0.83
2022-08-12T18:26:49.037Z,0.90
2022-08-12T18:29:16.046Z,1.00
2022-08-12T18:31:44.235Z,0.73
2022-08-12T18:34:26.737Z,0.93
2022-08-12T18:36:55.608Z,1.03
2022-08-12T18:39:22.348Z,1.00
2022-08-12T18:41:49.831Z,0.80
2022-08-12T18:44:16.244Z,0.93
2022-08-12T18:46:53.785Z,0.80
2022-08-12T18:49:30.666Z,1.20
2022-08-12T18:52:02.194Z,1.10
2022-08-12T18:54:31.191Z,1.00
2022-08-12T18:57:00.693Z,1.40
2022-08-12T19:00:02.024Z,1.10
2022-08-12T19:02:21.750Z,1.10
2022-08-12T19:04:49.804Z,1.20
2022-08-12T19:07:24.799Z,1.20
2022-08-12T19:10:00.120Z,1.10
2022-08-12T19:12:56.948Z,1.27
2022-08-12T19:15:25.704Z,0.90
2022-08-12T19:18:00.629Z,1.00
2022-08-12T19:20:29.998Z,1.00
2022-08-12T19:23:02.038Z,1.10
2022-08-12T19:25:59.355Z,1.07
2022-08-12T19:28:30.260Z,1.00
2022-08-12T19:31:56.690Z,1.10
2022-08-12T19:37:26.769Z,1.10
2022-08-12T19:40:08.108Z,0.90
2022-08-12T19:42:42.721Z,0.93
2022-08-12T19:45:13.841Z,1.17
2022-08-12T19:47:44.613Z,1.30
2022-08-12T19:50:11.883Z,1.30
2022-08-12T19:52:39.019Z,1.20
2022-08-12T19:55:11.431Z,1.13
2022-08-12T19:58:01.838Z,1.10
2022-08-12T20:00:30.206Z,1.07
2022-08-12T20:03:00.441Z,1.03
2022-08-12T20:06:06.484Z,1.60
2022-08-12T20:08:20.834Z,1.80
2022-08-12T20:12:11.776Z,1.20
2022-08-12T20:14:00.536Z,1.03
2022-08-12T20:16:53.194Z,1.10
2022-08-12T20:19:16.054Z,1.00
2022-08-12T20:21:43.492Z,1.20
2022-08-12T20:24:11.781Z,1.03
2022-08-12T20:26:42.050Z,1.00
2022-08-12T20:29:08.984Z,1.30
2022-08-12T20:31:39.594Z,1.30
2022-08-12T20:34:06.383Z,1.00
2022-08-12T20:36:41.277Z,1.23
2022-08-12T20:39:33.857Z,1.20
2022-08-12T20:41:58.767Z,1.30
2022-08-12T20:44:30.336Z,1.27
2022-08-12T20:46:58.339Z,1.20
2022-08-12T20:49:25.024Z,1.37
2022-08-12T20:51:56.150Z,1.13
2022-08-12T20:54:22.894Z,1.30
2022-08-12T20:57:00.925Z,1.00
2022-08-12T20:59:31.811Z,1.30
2022-08-12T21:01:58.717Z,1.30
2022-08-12T21:04:54.834Z,1.20
2022-08-12T21:07:23.550Z,1.30
2022-08-12T21:09:51.203Z,1.20
2022-08-12T21:12:31.635Z,1.30
2022-08-12T21:15:24.336Z,1.30
2022-08-12T21:18:09.639Z,1.27
2022-08-12T21:20:48.163Z,1.20
2022-08-12T21:23:15.530Z,1.10
2022-08-12T21:25:46.074Z,1.10
2022-08-12T21:28:13.625Z,1.10
2022-08-12T21:31:10.881Z,1.10
2022-08-12T21:33:30.792Z,1.50
2022-08-12T21:35:58.200Z,1.23
2022-08-12T21:38:34.303Z,1.10
2022-08-12T21:41:07.082Z,1.13
2022-08-12T21:43:38.949Z,1.07
2022-08-12T21:46:15.019Z,1.30
2022-08-12T21:49:04.600Z,1.20
2022-08-12T21:51:49.203Z,1.50
2022-08-12T21:54:21.726Z,1.10
2022-08-12T21:56:48.875Z,1.20
2022-08-12T21:59:15.998Z,1.20
2022-08-12T22:01:48.624Z,1.20
2022-08-12T22:04:34.537Z,1.10
2022-08-12T22:07:00.906Z,1.00
2022-08-12T22:09:28.668Z,1.10
2022-08-12T22:11:59.900Z,1.20
2022-08-12T22:14:29.964Z,1.07
2022-08-12T22:16:57.165Z,1.00
2022-08-12T22:19:23.804Z,1.27
2022-08-12T22:21:54.566Z,1.13
2022-08-12T22:24:25.727Z,1.10
2022-08-12T22:26:52.489Z,1.07
2022-08-12T22:29:37.305Z,1.00
2022-08-12T22:32:06.516Z,1.10
2022-08-12T22:34:37.997Z,1.07
2022-08-12T22:37:05.723Z,1.10
2022-08-12T22:39:37.990Z,0.90
2022-08-12T22:42:30.617Z,1.00
2022-08-12T22:45:16.409Z,1.10
2022-08-12T22:47:55.575Z,1.10
2022-08-12T22:50:27.502Z,1.10
2022-08-12T22:53:14.632Z,1.23
2022-08-12T22:56:00.450Z,0.90
2022-08-12T22:58:33.240Z,1.10
2022-08-12T23:01:02.338Z,1.00
2022-08-12T23:03:47.754Z,1.10
2022-08-12T23:06:16.639Z,1.07
2022-08-12T23:08:43.478Z,1.00
2022-08-12T23:11:10.033Z,1.17
2022-08-12T23:13:47.205Z,1.20
2022-08-12T23:16:28.536Z,1.20
2022-08-12T23:18:59.847Z,1.10
2022-08-12T23:22:03.236Z,1.00
2022-08-12T23:24:17.138Z,1.10
2022-08-12T23:27:03.572Z,1.27
2022-08-12T23:29:43.979Z,1.13
2022-08-12T23:32:35.278Z,0.97
2022-08-12T23:35:03.781Z,1.00
2022-08-12T23:37:47.149Z,1.10
2022-08-12T23:40:19.622Z,1.03
2022-08-12T23:42:47.845Z,1.17
2022-08-12T23:45:20.598Z,1.00
2022-08-12T23:47:58.427Z,1.30
2022-08-12T23:50:26.284Z,1.20
2022-08-12T23:53:00.420Z,1.23
2022-08-12T23:55:28.973Z,1.20
2022-08-12T23:58:20.937Z,1.10
